Time;durP1;ratioP1;P1;durP2;ratioP2;P2;SDS_P1;SDS_P2;PMS_P1;PMS_P2;Temp;Humidity;BMP_temperature;BMP_pressure;BME280_temperature;BME280_humidity;BME280_pressure;Samples;Min_cycle;Max_cycle;Signal;HPM_P1;HPM_P2
2024/03/11 00:01:44;;;;;;;;;;;10.80;99.90;;;;;;5049747;28;20030;-74
2024/03/11 00:04:10;;;;;;;;;;;10.90;99.90;;;;;;5049711;28;19904;-72
2024/03/11 00:06:39;;;;;;;;;;;10.90;99.90;;;;;;5048581;28;19905;-73
2024/03/11 00:09:15;;;;;;;;;;;10.80;99.90;;;;;;5049706;28;20369;-74
2024/03/11 00:11:48;;;;;;;;;;;10.70;99.90;;;;;;5048478;28;19927;-73
2024/03/11 00:14:21;;;;;;;;;;;10.60;99.90;;;;;;5049758;28;19923;-73
2024/03/11 00:16:46;;;;;;;;;;;10.60;99.90;;;;;;5049639;28;19953;-73
2024/03/11 00:19:12;;;;;;;;;;;10.80;99.90;;;;;;5049644;28;19908;-73
2024/03/11 00:21:38;;;;;;;;;;;10.90;99.90;;;;;;5048449;28;20304;-73
2024/03/11 00:24:03;;;;;;;;;;;11.00;99.90;;;;;;5049595;28;20332;-73
2024/03/11 00:26:29;;;;;;;;;;;11.00;99.90;;;;;;5049747;28;20003;-73
2024/03/11 00:28:55;;;;;;;;;;;11.00;99.90;;;;;;5049602;28;19912;-73
2024/03/11 00:31:25;;;;;;;;;;;11.10;99.90;;;;;;5049575;28;19909;-73
2024/03/11 00:33:50;;;;;;;;;;;11.10;99.90;;;;;;5052054;28;19931;-73
2024/03/11 00:36:17;;;;;;;;;;;11.10;99.90;;;;;;5055204;28;19905;-74
2024/03/11 00:38:43;;;;;;;;;;;11.00;99.90;;;;;;5051095;28;19904;-74
2024/03/11 00:41:09;;;;;;;;;;;10.80;99.90;;;;;;5056162;28;19917;-74
2024/03/11 00:43:35;;;;;;;;;;;10.80;99.90;;;;;;5058059;28;19991;-74
2024/03/11 00:46:01;;;;;;;;;;;10.90;99.90;;;;;;5057835;28;20002;-79
2024/03/11 00:48:27;;;;;;;;;;;10.80;99.90;;;;;;5058010;28;19909;-73
2024/03/11 00:50:53;;;;;;;;;;;10.80;99.90;;;;;;5053184;28;19909;-74
2024/03/11 00:53:19;;;;;;;;;;;10.90;99.90;;;;;;5051924;28;19905;-73
2024/03/11 00:55:46;;;;;;;;;;;10.70;99.90;;;;;;5053031;28;19924;-72
2024/03/11 00:58:13;;;;;;;;;;;10.70;99.90;;;;;;5051347;28;19908;-73
2024/03/11 01:00:39;;;;;;;;;;;10.70;99.90;;;;;;5052847;28;19920;-73
2024/03/11 01:03:06;;;;;;;;;;;10.70;99.90;;;;;;5051405;28;19960;-73
2024/03/11 01:05:32;;;;;;;;;;;10.80;99.90;;;;;;5052710;28;20377;-71
2024/03/11 01:07:57;;;;;;;;;;;10.90;99.90;;;;;;5051379;28;19916;-72
2024/03/11 01:10:23;;;;;;;;;;;11.00;99.90;;;;;;5051430;28;19913;-73
2024/03/11 01:12:49;;;;;;;;;;;10.90;99.90;;;;;;5052752;28;19948;-73
2024/03/11 01:15:15;;;;;;;;;;;10.80;99.90;;;;;;5051469;28;20459;-73
2024/03/11 01:17:40;;;;;;;;;;;10.80;99.90;;;;;;5051022;28;19908;-71
2024/03/11 01:20:09;;;;;;;;;;;10.80;99.90;;;;;;5051231;28;19982;-74
2024/03/11 01:22:35;;;;;;;;;;;10.70;99.90;;;;;;5051487;28;19909;-74
2024/03/11 01:25:00;;;;;;;;;;;10.70;99.90;;;;;;5051179;28;20404;-74
2024/03/11 01:27:26;;;;;;;;;;;10.80;99.90;;;;;;5052627;28;19912;-73
2024/03/11 01:29:51;;;;;;;;;;;10.80;99.90;;;;;;5051585;28;20380;-73
2024/03/11 01:32:17;;;;;;;;;;;10.70;99.90;;;;;;5052564;28;19904;-74
2024/03/11 01:34:42;;;;;;;;;;;10.70;99.90;;;;;;5052344;28;19955;-72
2024/03/11 01:37:08;;;;;;;;;;;10.70;99.90;;;;;;5053387;28;19909;-73
2024/03/11 01:39:43;;;;;;;;;;;10.80;99.90;;;;;;5058614;28;20477;-74
2024/03/11 01:42:14;;;;;;;;;;;10.80;99.90;;;;;;5056571;28;19920;-73
2024/03/11 01:44:43;;;;;;;;;;;10.90;99.90;;;;;;5052371;28;19915;-73
2024/03/11 01:47:09;;;;;;;;;;;10.90;99.90;;;;;;5052104;28;19916;-73
2024/03/11 01:49:36;;;;;;;;;;;10.90;99.90;;;;;;5050755;28;20369;-74
2024/03/11 01:52:03;;;;;;;;;;;10.80;99.90;;;;;;5051443;28;20399;-74
2024/03/11 01:54:28;;;;;;;;;;;11.00;99.90;;;;;;5051889;28;19967;-74
2024/03/11 01:56:55;;;;;;;;;;;10.90;99.90;;;;;;5051906;28;19948;-73
2024/03/11 01:59:21;;;;;;;;;;;10.90;99.90;;;;;;5051866;28;19909;-72
2024/03/11 02:01:47;;;;;;;;;;;10.90;99.90;;;;;;5050274;28;20308;-73
2024/03/11 02:04:13;;;;;;;;;;;10.80;99.90;;;;;;5050637;28;19951;-73
2024/03/11 02:06:39;;;;;;;;;;;10.90;99.90;;;;;;5051533;28;19943;-73
2024/03/11 02:09:07;;;;;;;;;;;10.90;99.90;;;;;;5051621;28;20454;-73
2024/03/11 02:11:33;;;;;;;;;;;10.80;99.90;;;;;;5051657;28;20288;-73
2024/03/11 02:13:59;;;;;;;;;;;10.90;99.90;;;;;;5050063;28;19909;-73
2024/03/11 02:16:26;;;;;;;;;;;10.90;99.90;;;;;;5051521;28;20444;-72
2024/03/11 02:18:52;;;;;;;;;;;11.00;99.90;;;;;;5050223;28;19905;-72
2024/03/11 02:21:17;;;;;;;;;;;10.90;99.90;;;;;;5051311;28;19912;-73
2024/03/11 02:23:43;;;;;;;;;;;10.90;99.90;;;;;;5051172;28;20409;-73
2024/03/11 02:26:09;;;;;;;;;;;11.00;99.90;;;;;;5049983;28;19915;-73
2024/03/11 02:28:34;;;;;;;;;;;11.00;99.90;;;;;;5051104;28;19909;-73
2024/03/11 02:31:00;;;;;;;;;;;10.90;99.90;;;;;;5051092;28;19908;-73
2024/03/11 02:33:26;;;;;;;;;;;10.90;99.90;;;;;;5051154;28;20321;-74
2024/03/11 02:35:51;;;;;;;;;;;10.80;99.90;;;;;;5050938;28;19913;-72
2024/03/11 02:38:17;;;;;;;;;;;10.90;99.90;;;;;;5051014;28;20288;-73
2024/03/11 02:40:42;;;;;;;;;;;10.80;99.90;;;;;;5050994;28;19920;-73
2024/03/11 02:43:08;;;;;;;;;;;10.80;99.90;;;;;;5049556;28;19912;-71
2024/03/11 02:45:34;;;;;;;;;;;10.80;99.90;;;;;;5050724;28;19904;-74
2024/03/11 02:48:00;;;;;;;;;;;10.90;99.90;;;;;;5051039;28;19909;-73
2024/03/11 02:50:26;;;;;;;;;;;10.90;99.90;;;;;;5050904;28;20336;-72
2024/03/11 02:52:51;;;;;;;;;;;10.80;99.90;;;;;;5050661;28;19904;-73
2024/03/11 02:55:21;;;;;;;;;;;10.80;99.90;;;;;;5050730;28;19909;-73
2024/03/11 02:57:48;;;;;;;;;;;10.80;99.90;;;;;;5049389;28;19909;-73
2024/03/11 03:00:17;;;;;;;;;;;10.90;99.90;;;;;;5049988;28;20328;-73
2024/03/11 03:02:43;;;;;;;;;;;10.90;99.90;;;;;;5050753;28;19956;-73
2024/03/11 03:05:09;;;;;;;;;;;10.80;99.90;;;;;;5048513;28;19944;-73
2024/03/11 03:07:35;;;;;;;;;;;10.80;99.90;;;;;;5050219;28;19912;-73
2024/03/11 03:10:02;;;;;;;;;;;10.80;99.90;;;;;;5050305;28;19908;-72
2024/03/11 03:12:29;;;;;;;;;;;10.80;99.90;;;;;;5050370;28;20270;-73
2024/03/11 03:14:58;;;;;;;;;;;10.80;99.90;;;;;;5050222;28;19905;-73
2024/03/11 03:17:24;;;;;;;;;;;10.90;99.90;;;;;;5049803;28;19908;-72
2024/03/11 03:19:49;;;;;;;;;;;10.80;99.90;;;;;;5049990;28;19966;-72
2024/03/11 03:22:15;;;;;;;;;;;10.80;99.90;;;;;;5049496;28;19923;-71
2024/03/11 03:24:41;;;;;;;;;;;10.80;99.90;;;;;;5050204;28;20404;-73
2024/03/11 03:27:08;;;;;;;;;;;10.70;99.90;;;;;;5048692;28;19995;-74
2024/03/11 03:29:33;;;;;;;;;;;10.70;99.90;;;;;;5048785;28;19934;-73
2024/03/11 03:31:59;;;;;;;;;;;10.70;99.90;;;;;;5050211;28;19909;-73
2024/03/11 03:34:24;;;;;;;;;;;10.70;99.90;;;;;;5050001;28;19920;-74
2024/03/11 03:36:50;;;;;;;;;;;10.80;99.90;;;;;;5049958;28;19913;-73
2024/03/11 03:39:15;;;;;;;;;;;10.90;99.90;;;;;;5050199;28;19944;-73
2024/03/11 03:41:41;;;;;;;;;;;10.70;99.90;;;;;;5050010;28;20403;-73
2024/03/11 03:44:06;;;;;;;;;;;10.80;99.90;;;;;;5050035;28;19915;-73
2024/03/11 03:46:32;;;;;;;;;;;10.90;99.90;;;;;;5049874;28;20028;-74
2024/03/11 03:48:58;;;;;;;;;;;10.70;99.90;;;;;;5049938;28;19909;-73
2024/03/11 03:51:24;;;;;;;;;;;10.80;99.90;;;;;;5049977;28;19905;-74
2024/03/11 03:53:49;;;;;;;;;;;10.60;99.90;;;;;;5049978;28;20365;-73
2024/03/11 03:56:15;;;;;;;;;;;10.60;99.90;;;;;;5052993;28;19908;-74
2024/03/11 03:58:41;;;;;;;;;;;10.60;99.90;;;;;;5053567;28;19979;-74
2024/03/11 04:01:07;;;;;;;;;;;10.70;99.90;;;;;;5051362;28;19923;-73
2024/03/11 04:03:34;;;;;;;;;;;10.60;99.90;;;;;;5053577;28;20526;-74
2024/03/11 04:06:00;;;;;;;;;;;10.60;99.90;;;;;;5055081;28;19904;-74
2024/03/11 04:08:25;;;;;;;;;;;10.50;99.90;;;;;;5052662;28;19962;-72
2024/03/11 04:10:51;;;;;;;;;;;10.50;99.90;;;;;;5050510;28;19905;-73
2024/03/11 04:13:17;;;;;;;;;;;10.30;99.90;;;;;;5049159;28;19905;-72
2024/03/11 04:15:43;;;;;;;;;;;10.20;99.90;;;;;;5050852;28;19912;-73
2024/03/11 04:18:10;;;;;;;;;;;10.20;99.90;;;;;;5052645;28;19911;-73
2024/03/11 04:20:37;;;;;;;;;;;10.20;99.90;;;;;;5054145;28;20369;-73
2024/03/11 04:23:07;;;;;;;;;;;10.20;99.90;;;;;;5058961;28;19905;-75
2024/03/11 04:25:33;;;;;;;;;;;9.90;99.90;;;;;;5059612;28;20289;-73
2024/03/11 04:27:59;;;;;;;;;;;9.90;99.90;;;;;;5052732;28;19952;-73
2024/03/11 04:30:28;;;;;;;;;;;10.20;99.90;;;;;;5053558;28;19990;-73
2024/03/11 04:32:54;;;;;;;;;;;10.20;99.90;;;;;;5052218;28;20381;-73
2024/03/11 04:35:26;;;;;;;;;;;10.10;99.90;;;;;;5051929;28;19920;-73
2024/03/11 04:37:55;;;;;;;;;;;10.10;99.90;;;;;;5052067;28;19909;-73
2024/03/11 04:40:21;;;;;;;;;;;10.20;99.90;;;;;;5051839;28;19913;-73
2024/03/11 04:42:47;;;;;;;;;;;10.10;99.90;;;;;;5053592;28;19912;-74
2024/03/11 04:45:12;;;;;;;;;;;10.10;99.90;;;;;;5053136;28;19909;-73
2024/03/11 04:47:38;;;;;;;;;;;10.20;99.90;;;;;;5053173;28;19909;-75
2024/03/11 04:50:03;;;;;;;;;;;10.30;99.90;;;;;;5051864;28;20300;-73
2024/03/11 04:52:29;;;;;;;;;;;10.30;99.90;;;;;;5053067;28;19944;-73
2024/03/11 04:54:55;;;;;;;;;;;10.20;99.90;;;;;;5051796;28;19946;-73
2024/03/11 04:57:22;;;;;;;;;;;10.20;99.90;;;;;;5052983;28;20397;-73
2024/03/11 04:59:48;;;;;;;;;;;10.10;99.90;;;;;;5051541;28;19940;-72
2024/03/11 05:02:14;;;;;;;;;;;10.00;99.90;;;;;;5051484;28;20335;-73
2024/03/11 05:04:39;;;;;;;;;;;9.90;99.90;;;;;;5051650;28;20682;-73
2024/03/11 05:07:05;;;;;;;;;;;10.00;99.90;;;;;;5051334;28;20585;-74
2024/03/11 05:09:30;;;;;;;;;;;9.70;99.90;;;;;;5051507;28;19955;-73
2024/03/11 05:11:58;;;;;;;;;;;9.60;99.90;;;;;;5051440;28;19954;-74
2024/03/11 05:14:24;;;;;;;;;;;9.50;99.90;;;;;;5051656;28;19944;-73
2024/03/11 05:16:50;;;;;;;;;;;9.50;99.90;;;;;;5052859;28;20582;-73
2024/03/11 05:19:15;;;;;;;;;;;9.40;99.90;;;;;;5052502;28;19905;-73
2024/03/11 05:21:41;;;;;;;;;;;9.40;99.90;;;;;;5052473;28;19920;-73
2024/03/11 05:24:06;;;;;;;;;;;9.40;99.90;;;;;;5051130;28;20018;-73
2024/03/11 05:26:32;;;;;;;;;;;9.30;99.90;;;;;;5051198;28;19932;-73
2024/03/11 05:28:59;;;;;;;;;;;9.40;99.90;;;;;;5052255;28;19920;-72
2024/03/11 05:31:26;;;;;;;;;;;9.30;99.90;;;;;;5052267;28;20431;-74
2024/03/11 05:33:51;;;;;;;;;;;9.30;99.90;;;;;;5052023;28;19948;-72
2024/03/11 05:36:17;;;;;;;;;;;9.40;99.90;;;;;;5050784;28;19958;-73
2024/03/11 05:38:42;;;;;;;;;;;9.40;99.90;;;;;;5050928;28;19908;-73
2024/03/11 05:41:09;;;;;;;;;;;9.60;99.90;;;;;;5050787;28;20416;-73
2024/03/11 05:43:35;;;;;;;;;;;9.70;99.90;;;;;;5052106;28;19916;-73
2024/03/11 05:46:00;;;;;;;;;;;9.50;99.90;;;;;;5051850;28;19913;-73
2024/03/11 05:48:26;;;;;;;;;;;9.50;99.90;;;;;;5051981;28;19905;-73
2024/03/11 05:51:01;;;;;;;;;;;9.60;99.90;;;;;;5052009;28;20007;-72
2024/03/11 05:53:28;;;;;;;;;;;9.70;99.90;;;;;;5050642;28;20285;-73
2024/03/11 05:55:54;;;;;;;;;;;9.70;99.90;;;;;;5050350;28;19927;-73
2024/03/11 05:58:26;;;;;;;;;;;9.80;99.90;;;;;;5050529;28;19951;-73
2024/03/11 06:00:54;;;;;;;;;;;9.80;99.90;;;;;;5050271;28;19924;-73
2024/03/11 06:03:20;;;;;;;;;;;9.80;99.90;;;;;;5051539;28;19908;-73
2024/03/11 06:05:48;;;;;;;;;;;10.00;99.90;;;;;;5051542;28;20270;-73
2024/03/11 06:08:16;;;;;;;;;;;10.10;99.90;;;;;;5050264;28;19904;-73
2024/03/11 06:10:42;;;;;;;;;;;10.20;99.90;;;;;;5051696;28;20376;-73
2024/03/11 06:13:08;;;;;;;;;;;10.30;99.90;;;;;;5051385;28;19908;-73
2024/03/11 06:15:34;;;;;;;;;;;10.30;99.90;;;;;;5050267;28;20019;-74
2024/03/11 06:18:00;;;;;;;;;;;10.40;99.90;;;;;;5050391;28;19909;-74
2024/03/11 06:20:25;;;;;;;;;;;10.40;99.90;;;;;;5051262;28;19909;-73
2024/03/11 06:22:51;;;;;;;;;;;10.50;99.90;;;;;;5049942;28;19979;-73
2024/03/11 06:25:18;;;;;;;;;;;10.30;99.90;;;;;;5051318;28;19944;-74
2024/03/11 06:27:43;;;;;;;;;;;10.40;99.90;;;;;;5051240;28;19909;-72
2024/03/11 06:30:09;;;;;;;;;;;10.30;99.90;;;;;;5051162;28;19920;-74
2024/03/11 06:32:35;;;;;;;;;;;10.20;99.90;;;;;;5049577;28;19967;-73
2024/03/11 06:35:00;;;;;;;;;;;10.40;99.90;;;;;;5049753;28;19924;-74
2024/03/11 06:37:26;;;;;;;;;;;10.30;99.90;;;;;;5050897;28;20455;-73
2024/03/11 06:39:52;;;;;;;;;;;10.20;99.90;;;;;;5050971;28;19908;-73
2024/03/11 06:42:17;;;;;;;;;;;10.20;99.90;;;;;;5051302;28;20433;-73
2024/03/11 06:44:43;;;;;;;;;;;10.40;99.90;;;;;;5050135;28;20316;-73
2024/03/11 06:47:09;;;;;;;;;;;10.50;99.90;;;;;;5050681;28;20392;-73
2024/03/11 06:49:34;;;;;;;;;;;10.50;99.90;;;;;;5050668;28;19923;-72
2024/03/11 06:52:00;;;;;;;;;;;10.50;99.90;;;;;;5050136;28;19950;-72
2024/03/11 06:54:26;;;;;;;;;;;10.50;99.90;;;;;;5049819;28;20332;-72
2024/03/11 06:56:51;;;;;;;;;;;10.60;99.90;;;;;;5051003;28;19909;-73
2024/03/11 06:59:17;;;;;;;;;;;10.60;99.90;;;;;;5051024;28;19912;-73
2024/03/11 07:01:42;;;;;;;;;;;10.70;99.90;;;;;;5051288;28;19999;-73
2024/03/11 07:04:11;;;;;;;;;;;10.60;99.90;;;;;;5049866;28;19908;-71
2024/03/11 07:06:39;;;;;;;;;;;10.50;99.90;;;;;;5051076;28;20340;-73
2024/03/11 07:09:05;;;;;;;;;;;10.70;99.90;;;;;;5054804;28;20337;-74
2024/03/11 07:11:30;;;;;;;;;;;10.70;99.90;;;;;;5053359;28;19905;-73
2024/03/11 07:13:56;;;;;;;;;;;11.00;99.90;;;;;;5049696;28;19909;-73
2024/03/11 07:16:22;;;;;;;;;;;10.90;99.90;;;;;;5049323;28;19959;-73
2024/03/11 07:18:50;;;;;;;;;;;10.90;99.90;;;;;;5049993;28;20272;-71
2024/03/11 07:21:16;;;;;;;;;;;11.00;99.90;;;;;;5055147;28;19952;-74
2024/03/11 07:23:41;;;;;;;;;;;11.10;99.90;;;;;;5055013;28;19905;-73
2024/03/11 07:26:07;;;;;;;;;;;11.10;99.90;;;;;;5053081;28;19904;-74
2024/03/11 07:28:33;;;;;;;;;;;11.00;99.90;;;;;;5055971;28;20281;-74
2024/03/11 07:30:59;;;;;;;;;;;11.10;99.90;;;;;;5056771;28;19909;-74
2024/03/11 07:33:25;;;;;;;;;;;11.10;99.90;;;;;;5052021;28;19940;-73
2024/03/11 07:35:53;;;;;;;;;;;11.20;99.90;;;;;;5048938;28;20427;-73
2024/03/11 07:38:19;;;;;;;;;;;11.20;99.90;;;;;;5048859;28;19940;-72
2024/03/11 07:40:45;;;;;;;;;;;11.20;99.90;;;;;;5050546;28;19917;-73
2024/03/11 07:43:11;;;;;;;;;;;11.20;99.90;;;;;;5048692;28;19915;-73
2024/03/11 07:45:37;;;;;;;;;;;11.40;99.90;;;;;;5050184;28;19948;-73
2024/03/11 07:48:04;;;;;;;;;;;11.50;99.90;;;;;;5048679;28;19912;-73
2024/03/11 07:50:29;;;;;;;;;;;11.40;99.90;;;;;;5047948;28;19915;-73
2024/03/11 07:52:55;;;;;;;;;;;11.20;99.90;;;;;;5049744;28;19905;-73
2024/03/11 07:55:24;;;;;;;;;;;11.30;99.90;;;;;;5049947;28;20537;-74
2024/03/11 07:57:51;;;;;;;;;;;11.50;99.90;;;;;;5048572;28;20392;-73
2024/03/11 08:00:18;;;;;;;;;;;11.50;99.90;;;;;;5048586;28;20518;-73
2024/03/11 08:02:52;;;;;;;;;;;11.40;99.90;;;;;;5048480;28;20425;-73
2024/03/11 08:05:18;;;;;;;;;;;11.30;99.90;;;;;;5048332;28;20332;-74
2024/03/11 08:07:47;;;;;;;;;;;11.50;99.90;;;;;;5049680;28;19908;-73
2024/03/11 08:10:13;;;;;;;;;;;11.50;99.90;;;;;;5048361;28;19909;-74
2024/03/11 08:12:39;;;;;;;;;;;11.70;99.90;;;;;;5049776;28;19911;-73
2024/03/11 08:15:10;;;;;;;;;;;11.80;99.90;;;;;;5049590;28;19935;-73
2024/03/11 08:17:36;;;;;;;;;;;11.70;99.90;;;;;;5049798;28;19920;-74
2024/03/11 08:20:04;;;;;;;;;;;11.80;99.90;;;;;;5048199;28;19912;-73
2024/03/11 08:22:30;;;;;;;;;;;11.70;99.90;;;;;;5048688;28;19912;-72
2024/03/11 08:24:56;;;;;;;;;;;11.60;99.90;;;;;;5049503;28;19909;-73
2024/03/11 08:27:22;;;;;;;;;;;11.70;99.90;;;;;;5049683;28;19908;-73
2024/03/11 08:29:48;;;;;;;;;;;11.70;99.90;;;;;;5048341;28;20049;-73
2024/03/11 08:32:13;;;;;;;;;;;11.70;99.90;;;;;;5049514;28;19963;-72
2024/03/11 08:34:39;;;;;;;;;;;11.70;99.90;;;;;;5049207;28;19921;-73
2024/03/11 08:37:04;;;;;;;;;;;11.60;99.90;;;;;;5049381;28;20393;-73
2024/03/11 08:39:30;;;;;;;;;;;11.60;99.90;;;;;;5048516;28;19909;-73
2024/03/11 08:41:57;;;;;;;;;;;11.50;99.90;;;;;;5049385;28;19962;-73
2024/03/11 08:44:23;;;;;;;;;;;11.40;99.90;;;;;;5048002;28;19912;-72
2024/03/11 08:46:50;;;;;;;;;;;11.30;99.90;;;;;;5049485;28;19905;-73
2024/03/11 08:49:15;;;;;;;;;;;11.20;99.90;;;;;;5049356;28;19909;-73
2024/03/11 08:51:41;;;;;;;;;;;11.20;99.90;;;;;;5048228;28;19927;-74
2024/03/11 08:54:07;;;;;;;;;;;11.20;99.90;;;;;;5049467;28;19909;-73
2024/03/11 08:56:33;;;;;;;;;;;11.00;99.90;;;;;;5049295;28;20408;-73
2024/03/11 08:59:00;;;;;;;;;;;10.90;99.90;;;;;;5049334;28;19998;-73
2024/03/11 09:01:26;;;;;;;;;;;10.80;99.90;;;;;;5051010;28;20053;-73
2024/03/11 09:03:52;;;;;;;;;;;10.90;99.90;;;;;;5051669;28;20383;-73
2024/03/11 09:06:17;;;;;;;;;;;10.80;99.90;;;;;;5052701;28;19943;-73
2024/03/11 09:08:48;;;;;;;;;;;10.70;99.90;;;;;;5052944;28;19909;-73
2024/03/11 09:11:13;;;;;;;;;;;10.70;99.90;;;;;;5052677;28;19979;-73
2024/03/11 09:13:40;;;;;;;;;;;10.70;99.90;;;;;;5052833;28;19908;-73
2024/03/11 09:16:06;;;;;;;;;;;10.80;99.90;;;;;;5052608;28;20013;-74
2024/03/11 09:18:32;;;;;;;;;;;10.90;99.90;;;;;;5052645;28;20392;-73
2024/03/11 09:20:57;;;;;;;;;;;10.90;99.90;;;;;;5052579;28;19923;-73
2024/03/11 09:23:23;;;;;;;;;;;10.90;99.90;;;;;;5052758;28;19908;-73
2024/03/11 09:25:49;;;;;;;;;;;10.90;99.90;;;;;;5052435;28;19908;-73
2024/03/11 09:28:17;;;;;;;;;;;11.00;99.90;;;;;;5052262;28;20341;-74
2024/03/11 09:30:43;;;;;;;;;;;11.00;99.90;;;;;;5052398;28;19999;-73
2024/03/11 09:33:11;;;;;;;;;;;11.20;99.90;;;;;;5051099;28;19996;-73
2024/03/11 09:35:37;;;;;;;;;;;11.20;99.90;;;;;;5052036;28;19966;-73
2024/03/11 09:38:02;;;;;;;;;;;11.20;99.90;;;;;;5052331;28;19909;-73
2024/03/11 09:40:28;;;;;;;;;;;11.30;99.90;;;;;;5052380;28;19930;-72
2024/03/11 09:42:54;;;;;;;;;;;11.50;99.90;;;;;;5052985;28;19923;-74
2024/03/11 09:45:22;;;;;;;;;;;11.60;99.90;;;;;;5052935;28;19905;-73
2024/03/11 09:47:57;;;;;;;;;;;11.80;99.90;;;;;;5052291;28;20292;-74
2024/03/11 09:50:26;;;;;;;;;;;11.90;99.90;;;;;;5052126;28;20005;-72
2024/03/11 09:52:57;;;;;;;;;;;11.90;99.90;;;;;;5052843;28;19913;-74
2024/03/11 09:55:24;;;;;;;;;;;11.90;99.90;;;;;;5052030;28;19915;-73
2024/03/11 09:57:50;;;;;;;;;;;12.00;99.90;;;;;;5050654;28;19909;-76
2024/03/11 10:00:23;;;;;;;;;;;12.20;99.90;;;;;;5051862;28;19909;-73
2024/03/11 10:02:52;;;;;;;;;;;12.50;99.90;;;;;;5051815;28;20391;-76
2024/03/11 10:05:19;;;;;;;;;;;12.60;99.90;;;;;;5051732;28;19915;-76
2024/03/11 10:07:45;;;;;;;;;;;12.80;99.90;;;;;;5051574;28;19963;-74
2024/03/11 10:10:12;;;;;;;;;;;12.80;99.90;;;;;;5051650;28;19956;-74
2024/03/11 10:12:53;;;;;;;;;;;12.90;99.90;;;;;;5051068;28;20337;-74
2024/03/11 10:15:28;;;;;;;;;;;12.90;99.90;;;;;;5051570;28;19934;-74
2024/03/11 10:17:55;;;;;;;;;;;12.90;99.90;;;;;;5051369;28;20393;-74
2024/03/11 10:20:21;;;;;;;;;;;12.90;99.90;;;;;;5050028;28;19916;-74
2024/03/11 10:22:47;;;;;;;;;;;12.80;99.90;;;;;;5051407;28;20358;-73
2024/03/11 10:25:13;;;;;;;;;;;12.80;99.90;;;;;;5049896;28;20373;-74
2024/03/11 10:27:43;;;;;;;;;;;12.80;99.90;;;;;;5051247;28;19908;-74
2024/03/11 10:30:21;;;;;;;;;;;12.70;99.90;;;;;;5052361;28;20018;-74
2024/03/11 10:32:54;;;;;;;;;;;12.70;99.90;;;;;;5049908;28;20440;-78
2024/03/11 10:35:20;;;;;;;;;;;12.60;99.90;;;;;;5049811;28;19962;-73
2024/03/11 10:37:46;;;;;;;;;;;12.50;99.90;;;;;;5049842;28;19954;-76
2024/03/11 10:40:19;;;;;;;;;;;12.40;99.90;;;;;;5049666;28;20411;-76
2024/03/11 10:42:54;;;;;;;;;;;12.40;99.90;;;;;;5051063;28;19912;-73
2024/03/11 10:45:33;;;;;;;;;;;12.30;99.90;;;;;;5049630;28;19915;-77
2024/03/11 10:48:00;;;;;;;;;;;12.50;99.90;;;;;;5049706;28;19999;-76
2024/03/11 10:50:30;;;;;;;;;;;12.60;99.90;;;;;;5050995;28;19908;-75
2024/03/11 10:52:57;;;;;;;;;;;12.60;99.90;;;;;;5051458;28;19908;-75
2024/03/11 10:55:25;;;;;;;;;;;12.60;99.90;;;;;;5050946;28;19956;-73
2024/03/11 10:57:53;;;;;;;;;;;12.50;99.90;;;;;;5049338;28;19943;-74
2024/03/11 11:00:20;;;;;;;;;;;12.50;99.90;;;;;;5049073;28;19944;-74
2024/03/11 11:03:12;;;;;;;;;;;12.50;99.90;;;;;;5050647;28;19991;-75
2024/03/11 11:06:00;;;;;;;;;;;12.50;99.90;;;;;;5050287;28;19912;-74
2024/03/11 11:08:30;;;;;;;;;;;12.60;99.90;;;;;;5050362;28;19909;-75
2024/03/11 11:10:57;;;;;;;;;;;12.70;99.90;;;;;;5050401;28;20283;-74
2024/03/11 11:13:24;;;;;;;;;;;12.80;99.90;;;;;;5050569;28;19991;-74
2024/03/11 11:15:50;;;;;;;;;;;13.00;99.90;;;;;;5048886;28;20017;-73
2024/03/11 11:18:17;;;;;;;;;;;13.20;99.90;;;;;;5050226;28;20439;-74
2024/03/11 11:20:46;;;;;;;;;;;13.30;99.90;;;;;;5050218;28;20063;-73
2024/03/11 11:23:22;;;;;;;;;;;13.40;99.90;;;;;;5050164;28;20281;-74
2024/03/11 11:25:48;;;;;;;;;;;13.40;99.90;;;;;;5049234;28;20321;-74
2024/03/11 11:28:28;;;;;;;;;;;13.20;99.90;;;;;;5049003;28;20078;-73
2024/03/11 11:31:14;;;;;;;;;;;13.20;99.90;;;;;;5048636;28;20038;-74
2024/03/11 11:33:53;;;;;;;;;;;13.20;99.90;;;;;;5049727;28;19912;-75
2024/03/11 11:38:58;;;;;;;;;;;12.90;99.90;;;;;;5050234;28;19905;-73
2024/03/11 11:41:34;;;;;;;;;;;12.90;99.90;;;;;;5048563;28;19958;-73
2024/03/11 11:44:00;;;;;;;;;;;12.90;99.90;;;;;;5049888;28;19904;-75
2024/03/11 11:46:42;;;;;;;;;;;13.00;99.90;;;;;;5048390;28;19908;-74
2024/03/11 11:49:16;;;;;;;;;;;13.00;99.90;;;;;;5049915;28;19929;-75
2024/03/11 11:51:43;;;;;;;;;;;13.00;99.90;;;;;;5048729;28;19913;-73
2024/03/11 11:54:16;;;;;;;;;;;13.00;99.90;;;;;;5050045;28;19987;-74
2024/03/11 11:56:41;;;;;;;;;;;12.90;99.90;;;;;;5048505;28;19908;-74
2024/03/11 11:59:08;;;;;;;;;;;12.90;99.90;;;;;;5049933;28;20601;-74
2024/03/11 12:01:50;;;;;;;;;;;13.00;99.90;;;;;;5048217;28;19916;-74
2024/03/11 12:04:15;;;;;;;;;;;12.90;99.90;;;;;;5049641;28;19911;-73
2024/03/11 12:06:42;;;;;;;;;;;12.90;99.90;;;;;;5049289;28;19912;-74
2024/03/11 12:09:12;;;;;;;;;;;13.00;99.90;;;;;;5049709;28;19911;-74
2024/03/11 12:11:45;;;;;;;;;;;13.10;99.90;;;;;;5049672;28;19909;-73
2024/03/11 12:14:11;;;;;;;;;;;13.40;99.90;;;;;;5048395;28;20373;-73
2024/03/11 12:16:38;;;;;;;;;;;13.30;99.90;;;;;;5048374;28;19904;-73
2024/03/11 12:19:09;;;;;;;;;;;13.30;99.90;;;;;;5049560;28;19909;-74
2024/03/11 12:21:42;;;;;;;;;;;13.30;99.90;;;;;;5049489;28;19917;-75
2024/03/11 12:24:14;;;;;;;;;;;13.30;99.90;;;;;;5048381;28;19963;-75
2024/03/11 12:26:45;;;;;;;;;;;13.40;99.90;;;;;;5049466;28;19912;-74
2024/03/11 12:29:15;;;;;;;;;;;13.50;99.90;;;;;;5048188;28;19905;-75
2024/03/11 12:31:41;;;;;;;;;;;13.70;99.90;;;;;;5048142;28;20007;-74
2024/03/11 12:34:13;;;;;;;;;;;13.80;99.90;;;;;;5047978;28;19995;-75
2024/03/11 12:36:48;;;;;;;;;;;13.90;99.90;;;;;;5050441;28;19909;-75
2024/03/11 12:39:27;;;;;;;;;;;14.10;99.90;;;;;;5053348;28;19947;-73
2024/03/11 12:41:56;;;;;;;;;;;14.10;99.90;;;;;;5052140;28;19912;-74
2024/03/11 12:44:24;;;;;;;;;;;14.20;99.90;;;;;;5053249;28;20340;-72
2024/03/11 12:46:53;;;;;;;;;;;14.30;99.90;;;;;;5051864;28;19983;-73
2024/03/11 12:49:19;;;;;;;;;;;14.30;99.90;;;;;;5051777;28;20350;-73
2024/03/11 12:51:45;;;;;;;;;;;14.50;99.90;;;;;;5051560;28;19931;-74
2024/03/11 12:54:18;;;;;;;;;;;14.60;99.90;;;;;;5053041;28;20332;-72
2024/03/11 12:56:47;;;;;;;;;;;14.60;99.90;;;;;;5052849;28;19911;-73
2024/03/11 12:59:13;;;;;;;;;;;14.80;99.90;;;;;;5051358;28;19941;-73
2024/03/11 13:01:42;;;;;;;;;;;14.80;99.90;;;;;;5052960;28;20003;-74
2024/03/11 13:04:15;;;;;;;;;;;14.80;99.90;;;;;;5052654;28;19951;-73
2024/03/11 13:06:41;;;;;;;;;;;15.00;99.90;;;;;;5052697;28;19912;-74
2024/03/11 13:09:16;;;;;;;;;;;15.00;99.90;;;;;;5052702;28;19915;-73
2024/03/11 13:11:42;;;;;;;;;;;14.90;99.90;;;;;;5051294;28;19994;-73
2024/03/11 13:14:08;;;;;;;;;;;14.90;99.90;;;;;;5052566;28;19979;-73
2024/03/11 13:16:33;;;;;;;;;;;14.90;99.90;;;;;;5052462;28;19916;-74
2024/03/11 13:19:00;;;;;;;;;;;14.70;99.90;;;;;;5051387;28;19917;-74
2024/03/11 13:21:25;;;;;;;;;;;14.70;99.90;;;;;;5052443;28;19919;-73
2024/03/11 13:23:52;;;;;;;;;;;14.60;99.90;;;;;;5052452;28;19909;-73
2024/03/11 13:26:22;;;;;;;;;;;14.60;99.90;;;;;;5050951;28;19923;-74
2024/03/11 13:28:47;;;;;;;;;;;14.50;99.90;;;;;;5051102;28;19909;-75
2024/03/11 13:31:13;;;;;;;;;;;14.50;99.90;;;;;;5052345;28;19909;-75
2024/03/11 13:33:41;;;;;;;;;;;14.40;99.90;;;;;;5050944;28;19909;-75
2024/03/11 13:36:08;;;;;;;;;;;14.40;99.90;;;;;;5050979;28;19927;-75
2024/03/11 13:38:34;;;;;;;;;;;14.40;99.90;;;;;;5050907;28;19982;-74
2024/03/11 13:41:00;;;;;;;;;;;14.40;99.90;;;;;;5050740;28;20585;-75
2024/03/11 13:43:25;;;;;;;;;;;14.40;99.90;;;;;;5052197;28;19915;-75
2024/03/11 13:45:51;;;;;;;;;;;14.30;99.90;;;;;;5052203;28;20389;-74
2024/03/11 13:48:20;;;;;;;;;;;14.40;99.90;;;;;;5051194;28;19908;-75
2024/03/11 13:50:47;;;;;;;;;;;14.30;99.90;;;;;;5051992;28;20018;-74
2024/03/11 13:53:13;;;;;;;;;;;14.30;99.90;;;;;;5050461;28;20012;-73
2024/03/11 13:55:38;;;;;;;;;;;14.10;99.90;;;;;;5050420;28;19913;-75
2024/03/11 13:58:04;;;;;;;;;;;14.20;99.90;;;;;;5050823;28;19916;-73
2024/03/11 14:00:29;;;;;;;;;;;14.20;99.90;;;;;;5050403;28;19913;-75
2024/03/11 14:02:56;;;;;;;;;;;14.40;99.90;;;;;;5051606;28;19913;-73
2024/03/11 14:05:23;;;;;;;;;;;14.40;99.90;;;;;;5051659;28;20007;-75
2024/03/11 14:07:50;;;;;;;;;;;14.50;99.90;;;;;;5051543;28;19909;-75
2024/03/11 14:10:16;;;;;;;;;;;14.50;99.90;;;;;;5050362;28;19905;-75
2024/03/11 14:12:42;;;;;;;;;;;14.50;99.90;;;;;;5050544;28;20396;-76
2024/03/11 14:15:11;;;;;;;;;;;14.40;99.90;;;;;;5050124;28;19999;-75
2024/03/11 14:17:39;;;;;;;;;;;14.70;99.90;;;;;;5050108;28;20392;-76
2024/03/11 14:20:05;;;;;;;;;;;14.60;99.90;;;;;;5051443;28;19909;-75
2024/03/11 14:22:31;;;;;;;;;;;14.60;99.90;;;;;;5051115;28;19969;-75